sensor_id;sensor_type;location;lat;lon;timestamp;pressure;altitude;pressure_sealevel;temperature;humidity
74893;BME280;63446;56.272;43.922;2022-09-29T00:01:11;99706.31;;;7.75;84.89
74893;BME280;63446;56.272;43.922;2022-09-29T00:03:38;99706.88;;;7.77;84.88
74893;BME280;63446;56.272;43.922;2022-09-29T00:06:12;99699.47;;;7.79;84.90
74893;BME280;63446;56.272;43.922;2022-09-29T00:08:38;99709.47;;;7.82;84.98
74893;BME280;63446;56.272;43.922;2022-09-29T00:11:08;99710.00;;;7.85;84.95
74893;BME280;63446;56.272;43.922;2022-09-29T00:13:34;99702.13;;;7.85;84.97
74893;BME280;63446;56.272;43.922;2022-09-29T00:16:01;99701.31;;;7.89;84.94
74893;BME280;63446;56.272;43.922;2022-09-29T00:18:29;99707.88;;;7.92;84.86
74893;BME280;63446;56.272;43.922;2022-09-29T00:21:10;99703.16;;;7.94;84.85
74893;BME280;63446;56.272;43.922;2022-09-29T00:23:36;99711.03;;;7.94;84.84
74893;BME280;63446;56.272;43.922;2022-09-29T00:26:06;99707.63;;;7.93;84.84
74893;BME280;63446;56.272;43.922;2022-09-29T00:28:34;99704.44;;;7.91;84.83
74893;BME280;63446;56.272;43.922;2022-09-29T00:31:01;99706.56;;;7.89;84.73
74893;BME280;63446;56.272;43.922;2022-09-29T00:33:32;99703.94;;;7.89;84.75
74893;BME280;63446;56.272;43.922;2022-09-29T00:36:04;99703.16;;;7.89;84.82
74893;BME280;63446;56.272;43.922;2022-09-29T00:38:31;99714.47;;;7.89;84.75
74893;BME280;63446;56.272;43.922;2022-09-29T00:40:58;99711.56;;;7.91;84.72
74893;BME280;63446;56.272;43.922;2022-09-29T00:46:45;99717.88;;;7.90;84.80
74893;BME280;63446;56.272;43.922;2022-09-29T00:49:18;99719.47;;;7.91;84.70
74893;BME280;63446;56.272;43.922;2022-09-29T00:51:58;99729.19;;;7.90;84.67
74893;BME280;63446;56.272;43.922;2022-09-29T00:54:25;99722.09;;;7.91;84.69
74893;BME280;63446;56.272;43.922;2022-09-29T00:56:55;99728.91;;;7.92;84.73
74893;BME280;63446;56.272;43.922;2022-09-29T00:59:34;99726.84;;;7.89;84.78
74893;BME280;63446;56.272;43.922;2022-09-29T01:02:04;99730.53;;;7.93;84.58
74893;BME280;63446;56.272;43.922;2022-09-29T01:04:30;99729.44;;;7.94;84.65
74893;BME280;63446;56.272;43.922;2022-09-29T01:06:58;99732.88;;;7.94;84.68
74893;BME280;63446;56.272;43.922;2022-09-29T01:09:27;99731.03;;;7.95;84.58
74893;BME280;63446;56.272;43.922;2022-09-29T01:11:55;99726.03;;;7.93;84.67
74893;BME280;63446;56.272;43.922;2022-09-29T01:14:26;99724.72;;;7.96;84.63
74893;BME280;63446;56.272;43.922;2022-09-29T01:16:54;99729.44;;;7.94;84.58
74893;BME280;63446;56.272;43.922;2022-09-29T01:19:31;99724.44;;;7.97;84.52
74893;BME280;63446;56.272;43.922;2022-09-29T01:25:16;99724.97;;;7.94;84.70
74893;BME280;63446;56.272;43.922;2022-09-29T01:30:45;99740.50;;;7.96;84.55
74893;BME280;63446;56.272;43.922;2022-09-29T01:33:42;99739.44;;;7.97;84.49
74893;BME280;63446;56.272;43.922;2022-09-29T01:36:44;99734.97;;;7.97;84.44
74893;BME280;63446;56.272;43.922;2022-09-29T01:39:24;99742.59;;;7.99;84.33
74893;BME280;63446;56.272;43.922;2022-09-29T01:42:16;99738.66;;;8.01;84.37
74893;BME280;63446;56.272;43.922;2022-09-29T01:44:47;99737.59;;;8.02;84.29
74893;BME280;63446;56.272;43.922;2022-09-29T01:50:15;99733.91;;;8.03;84.36
74893;BME280;63446;56.272;43.922;2022-09-29T01:52:45;99741.25;;;8.06;84.26
74893;BME280;63446;56.272;43.922;2022-09-29T01:55:19;99743.09;;;8.06;84.40
74893;BME280;63446;56.272;43.922;2022-09-29T01:57:52;99739.69;;;8.05;84.23
74893;BME280;63446;56.272;43.922;2022-09-29T02:00:21;99734.72;;;8.04;84.34
74893;BME280;63446;56.272;43.922;2022-09-29T02:02:59;99746.81;;;8.05;84.39
74893;BME280;63446;56.272;43.922;2022-09-29T02:05:34;99743.38;;;8.04;84.34
74893;BME280;63446;56.272;43.922;2022-09-29T02:08:13;99742.31;;;8.05;84.35
74893;BME280;63446;56.272;43.922;2022-09-29T02:10:48;99736.53;;;8.08;84.34
74893;BME280;63446;56.272;43.922;2022-09-29T02:13:16;99741.50;;;8.10;84.37
74893;BME280;63446;56.272;43.922;2022-09-29T02:15:45;99745.22;;;8.09;84.51
74893;BME280;63446;56.272;43.922;2022-09-29T02:18:19;99747.84;;;8.09;84.40
74893;BME280;63446;56.272;43.922;2022-09-29T02:20:47;99744.16;;;8.10;84.45
74893;BME280;63446;56.272;43.922;2022-09-29T02:23:13;99742.59;;;8.09;84.45
74893;BME280;63446;56.272;43.922;2022-09-29T02:25:39;99737.31;;;8.09;84.60
74893;BME280;63446;56.272;43.922;2022-09-29T02:28:06;99739.94;;;8.09;84.50
74893;BME280;63446;56.272;43.922;2022-09-29T02:30:33;99744.69;;;8.07;84.64
74893;BME280;63446;56.272;43.922;2022-09-29T02:32:59;99749.41;;;8.10;84.45
74893;BME280;63446;56.272;43.922;2022-09-29T02:35:55;99753.66;;;8.11;84.54
74893;BME280;63446;56.272;43.922;2022-09-29T02:38:34;99744.69;;;8.12;84.52
74893;BME280;63446;56.272;43.922;2022-09-29T02:41:15;99753.63;;;8.16;84.54
74893;BME280;63446;56.272;43.922;2022-09-29T02:43:56;99755.44;;;8.21;84.64
74893;BME280;63446;56.272;43.922;2022-09-29T02:46:46;99757.81;;;8.22;84.48
74893;BME280;63446;56.272;43.922;2022-09-29T02:52:41;99770.19;;;8.27;84.48
74893;BME280;63446;56.272;43.922;2022-09-29T02:55:07;99774.38;;;8.28;84.37
74893;BME280;63446;56.272;43.922;2022-09-29T03:00:21;99763.84;;;8.33;84.54
74893;BME280;63446;56.272;43.922;2022-09-29T03:02:47;99768.06;;;8.34;84.45
74893;BME280;63446;56.272;43.922;2022-09-29T03:05:16;99773.06;;;8.36;84.39
74893;BME280;63446;56.272;43.922;2022-09-29T03:07:43;99763.59;;;8.35;84.50
74893;BME280;63446;56.272;43.922;2022-09-29T03:10:11;99764.91;;;8.37;84.50
74893;BME280;63446;56.272;43.922;2022-09-29T03:12:37;99764.09;;;8.37;84.52
74893;BME280;63446;56.272;43.922;2022-09-29T03:15:04;99771.50;;;8.40;84.48
74893;BME280;63446;56.272;43.922;2022-09-29T03:17:31;99775.44;;;8.42;84.54
74893;BME280;63446;56.272;43.922;2022-09-29T03:19:57;99771.22;;;8.41;84.50
74893;BME280;63446;56.272;43.922;2022-09-29T03:22:23;99778.31;;;8.41;84.51
74893;BME280;63446;56.272;43.922;2022-09-29T03:24:49;99772.81;;;8.42;84.41
74893;BME280;63446;56.272;43.922;2022-09-29T03:27:15;99769.38;;;8.42;84.37
74893;BME280;63446;56.272;43.922;2022-09-29T03:29:41;99772.03;;;8.42;84.41
74893;BME280;63446;56.272;43.922;2022-09-29T03:32:07;99770.16;;;8.42;84.46
74893;BME280;63446;56.272;43.922;2022-09-29T03:34:34;99780.44;;;8.44;84.42
74893;BME280;63446;56.272;43.922;2022-09-29T03:37:00;99785.69;;;8.44;84.42
74893;BME280;63446;56.272;43.922;2022-09-29T03:39:26;99788.31;;;8.44;84.35
74893;BME280;63446;56.272;43.922;2022-09-29T03:41:53;99784.63;;;8.45;84.55
74893;BME280;63446;56.272;43.922;2022-09-29T03:44:19;99789.66;;;8.46;84.47
74893;BME280;63446;56.272;43.922;2022-09-29T03:46:46;99795.69;;;8.47;84.55
74893;BME280;63446;56.272;43.922;2022-09-29T03:49:13;99798.84;;;8.44;84.61
74893;BME280;63446;56.272;43.922;2022-09-29T03:51:40;99798.31;;;8.47;84.52
74893;BME280;63446;56.272;43.922;2022-09-29T03:54:06;99800.69;;;8.48;84.54
74893;BME280;63446;56.272;43.922;2022-09-29T03:56:33;99802.78;;;8.51;84.38
74893;BME280;63446;56.272;43.922;2022-09-29T03:58:59;99800.13;;;8.56;84.50
74893;BME280;63446;56.272;43.922;2022-09-29T04:01:25;99803.56;;;8.62;84.52
74893;BME280;63446;56.272;43.922;2022-09-29T04:03:50;99807.72;;;8.68;84.59
74893;BME280;63446;56.272;43.922;2022-09-29T04:06:16;99801.91;;;8.71;84.38
74893;BME280;63446;56.272;43.922;2022-09-29T04:08:42;99808.22;;;8.75;84.22
74893;BME280;63446;56.272;43.922;2022-09-29T04:11:08;99806.13;;;8.77;84.31
74893;BME280;63446;56.272;43.922;2022-09-29T04:13:34;99812.44;;;8.82;84.26
74893;BME280;63446;56.272;43.922;2022-09-29T04:16:02;99815.56;;;8.84;84.19
74893;BME280;63446;56.272;43.922;2022-09-29T04:18:28;99813.97;;;8.88;84.19
74893;BME280;63446;56.272;43.922;2022-09-29T04:20:54;99813.44;;;8.91;84.15
74893;BME280;63446;56.272;43.922;2022-09-29T04:23:26;99822.38;;;8.95;84.13
74893;BME280;63446;56.272;43.922;2022-09-29T04:25:54;99806.56;;;8.95;84.06
74893;BME280;63446;56.272;43.922;2022-09-29T04:28:20;99823.41;;;8.99;84.03
74893;BME280;63446;56.272;43.922;2022-09-29T04:30:46;99823.16;;;9.00;83.96
74893;BME280;63446;56.272;43.922;2022-09-29T04:33:12;99826.03;;;9.04;84.14
74893;BME280;63446;56.272;43.922;2022-09-29T04:35:38;99827.56;;;9.10;84.07
74893;BME280;63446;56.272;43.922;2022-09-29T04:38:04;99822.78;;;9.17;83.93
74893;BME280;63446;56.272;43.922;2022-09-29T04:40:30;99829.63;;;9.23;83.96
74893;BME280;63446;56.272;43.922;2022-09-29T04:42:56;99829.59;;;9.28;83.76
74893;BME280;63446;56.272;43.922;2022-09-29T04:45:22;99833.78;;;9.35;83.69
74893;BME280;63446;56.272;43.922;2022-09-29T04:47:48;99828.47;;;9.40;83.55
74893;BME280;63446;56.272;43.922;2022-09-29T04:50:15;99831.06;;;9.45;83.37
74893;BME280;63446;56.272;43.922;2022-09-29T04:52:42;99834.72;;;9.49;83.30
74893;BME280;63446;56.272;43.922;2022-09-29T04:55:08;99828.41;;;9.50;83.18
74893;BME280;63446;56.272;43.922;2022-09-29T04:57:37;99832.09;;;9.49;83.18
74893;BME280;63446;56.272;43.922;2022-09-29T05:00:04;99838.19;;;9.49;83.31
74893;BME280;63446;56.272;43.922;2022-09-29T05:02:30;99838.69;;;9.51;83.27
74893;BME280;63446;56.272;43.922;2022-09-29T05:04:56;99840.00;;;9.54;83.17
74893;BME280;63446;56.272;43.922;2022-09-29T05:07:21;99838.16;;;9.54;83.16
74893;BME280;63446;56.272;43.922;2022-09-29T05:09:48;99844.44;;;9.59;83.10
74893;BME280;63446;56.272;43.922;2022-09-29T05:12:13;99848.66;;;9.60;83.31
74893;BME280;63446;56.272;43.922;2022-09-29T05:14:39;99850.50;;;9.59;83.13
74893;BME280;63446;56.272;43.922;2022-09-29T05:17:05;99854.72;;;9.60;83.05
74893;BME280;63446;56.272;43.922;2022-09-29T05:19:31;99861.59;;;9.61;83.27
74893;BME280;63446;56.272;43.922;2022-09-29T05:21:57;99854.97;;;9.64;83.44
74893;BME280;63446;56.272;43.922;2022-09-29T05:24:25;99854.69;;;9.65;83.21
74893;BME280;63446;56.272;43.922;2022-09-29T05:26:51;99867.59;;;9.67;83.11
74893;BME280;63446;56.272;43.922;2022-09-29T05:29:16;99867.59;;;9.67;83.07
74893;BME280;63446;56.272;43.922;2022-09-29T05:31:42;99877.38;;;9.66;83.03
74893;BME280;63446;56.272;43.922;2022-09-29T05:34:08;99880.28;;;9.65;82.76
74893;BME280;63446;56.272;43.922;2022-09-29T05:36:34;99878.69;;;9.64;82.71
74893;BME280;63446;56.272;43.922;2022-09-29T05:39:00;99877.41;;;9.61;82.81
74893;BME280;63446;56.272;43.922;2022-09-29T05:41:26;99873.19;;;9.60;82.87
74893;BME280;63446;56.272;43.922;2022-09-29T05:43:53;99868.16;;;9.64;82.72
74893;BME280;63446;56.272;43.922;2022-09-29T05:46:19;99875.03;;;9.65;82.90
74893;BME280;63446;56.272;43.922;2022-09-29T05:48:47;99880.00;;;9.66;82.78
74893;BME280;63446;56.272;43.922;2022-09-29T05:51:15;99882.91;;;9.70;82.83
74893;BME280;63446;56.272;43.922;2022-09-29T05:53:41;99880.75;;;9.72;82.82
74893;BME280;63446;56.272;43.922;2022-09-29T05:56:12;99885.22;;;9.76;82.94
74893;BME280;63446;56.272;43.922;2022-09-29T05:58:40;99887.03;;;9.81;82.93
74893;BME280;63446;56.272;43.922;2022-09-29T06:01:07;99885.66;;;9.89;82.79
74893;BME280;63446;56.272;43.922;2022-09-29T06:03:34;99883.50;;;9.96;82.76
74893;BME280;63446;56.272;43.922;2022-09-29T06:06:28;99878.97;;;10.01;82.56
74893;BME280;63446;56.272;43.922;2022-09-29T06:08:55;99882.88;;;10.09;82.57
74893;BME280;63446;56.272;43.922;2022-09-29T06:11:27;99884.13;;;10.17;82.56
74893;BME280;63446;56.272;43.922;2022-09-29T06:13:53;99889.63;;;10.25;82.50
74893;BME280;63446;56.272;43.922;2022-09-29T06:16:22;99888.53;;;10.32;82.42
74893;BME280;63446;56.272;43.922;2022-09-29T06:18:49;99887.69;;;10.36;82.39
74893;BME280;63446;56.272;43.922;2022-09-29T06:21:17;99894.50;;;10.42;82.13
74893;BME280;63446;56.272;43.922;2022-09-29T06:23:43;99901.59;;;10.47;82.14
74893;BME280;63446;56.272;43.922;2022-09-29T06:26:12;99912.63;;;10.54;82.10
74893;BME280;63446;56.272;43.922;2022-09-29T06:28:38;99910.44;;;10.61;82.24
74893;BME280;63446;56.272;43.922;2022-09-29T06:31:11;99914.56;;;10.72;81.81
74893;BME280;63446;56.272;43.922;2022-09-29T06:33:37;99923.72;;;10.80;81.58
74893;BME280;63446;56.272;43.922;2022-09-29T06:39:07;99927.50;;;10.98;81.58
74893;BME280;63446;56.272;43.922;2022-09-29T06:41:33;99935.31;;;11.08;81.67
74893;BME280;63446;56.272;43.922;2022-09-29T06:44:00;99940.47;;;11.18;81.45
74893;BME280;63446;56.272;43.922;2022-09-29T06:46:26;99934.59;;;11.27;81.38
74893;BME280;63446;56.272;43.922;2022-09-29T06:48:53;99934.75;;;11.35;81.30
74893;BME280;63446;56.272;43.922;2022-09-29T06:51:20;99933.31;;;11.43;81.00
74893;BME280;63446;56.272;43.922;2022-09-29T06:53:49;99929.50;;;11.49;80.18
74893;BME280;63446;56.272;43.922;2022-09-29T06:56:16;99931.19;;;11.64;80.20
74893;BME280;63446;56.272;43.922;2022-09-29T06:58:44;99917.50;;;11.76;79.57
74893;BME280;63446;56.272;43.922;2022-09-29T07:01:09;99923.59;;;11.95;79.32
74893;BME280;63446;56.272;43.922;2022-09-29T07:03:36;99931.31;;;12.10;78.93
74893;BME280;63446;56.272;43.922;2022-09-29T07:06:06;99944.41;;;12.20;78.88
74893;BME280;63446;56.272;43.922;2022-09-29T07:08:33;99954.66;;;12.27;78.61
74893;BME280;63446;56.272;43.922;2022-09-29T07:11:01;99959.38;;;12.30;78.58
74893;BME280;63446;56.272;43.922;2022-09-29T07:13:28;99969.97;;;12.30;78.75
74893;BME280;63446;56.272;43.922;2022-09-29T07:15:54;99963.59;;;12.31;78.68
74893;BME280;63446;56.272;43.922;2022-09-29T07:18:20;99970.75;;;12.31;78.64
74893;BME280;63446;56.272;43.922;2022-09-29T07:20:47;99966.25;;;12.31;78.46
74893;BME280;63446;56.272;43.922;2022-09-29T07:23:12;99981.38;;;12.31;78.35
74893;BME280;63446;56.272;43.922;2022-09-29T07:25:38;99984.00;;;12.31;78.21
74893;BME280;63446;56.272;43.922;2022-09-29T07:28:04;99989.31;;;12.31;78.13
74893;BME280;63446;56.272;43.922;2022-09-29T07:30:30;99992.53;;;12.28;78.31
74893;BME280;63446;56.272;43.922;2022-09-29T07:32:56;99988.78;;;12.29;78.15
74893;BME280;63446;56.272;43.922;2022-09-29T07:35:22;99998.63;;;12.28;78.26
74893;BME280;63446;56.272;43.922;2022-09-29T07:37:52;100001.78;;;12.30;78.18
74893;BME280;63446;56.272;43.922;2022-09-29T07:40:19;100005.69;;;12.33;78.17
74893;BME280;63446;56.272;43.922;2022-09-29T07:42:47;99999.81;;;12.36;78.16
74893;BME280;63446;56.272;43.922;2022-09-29T07:45:14;100000.72;;;12.45;78.08
74893;BME280;63446;56.272;43.922;2022-09-29T07:47:40;100001.34;;;12.56;77.47
74893;BME280;63446;56.272;43.922;2022-09-29T07:50:06;100003.06;;;12.65;77.38
74893;BME280;63446;56.272;43.922;2022-09-29T07:52:33;100005.25;;;12.77;77.06
74893;BME280;63446;56.272;43.922;2022-09-29T07:54:58;99996.81;;;12.89;76.91
74893;BME280;63446;56.272;43.922;2022-09-29T07:57:24;99997.13;;;13.01;76.57
74893;BME280;63446;56.272;43.922;2022-09-29T07:59:49;100003.53;;;13.14;76.19
74893;BME280;63446;56.272;43.922;2022-09-29T08:02:15;100007.91;;;13.24;76.27
74893;BME280;63446;56.272;43.922;2022-09-29T08:04:41;100007.09;;;13.37;76.10
74893;BME280;63446;56.272;43.922;2022-09-29T08:07:09;100006.78;;;13.52;75.65
74893;BME280;63446;56.272;43.922;2022-09-29T08:09:34;100002.66;;;13.60;75.22
74893;BME280;63446;56.272;43.922;2022-09-29T08:12:01;100005.50;;;13.63;75.03
74893;BME280;63446;56.272;43.922;2022-09-29T08:14:27;100009.06;;;13.73;74.76
74893;BME280;63446;56.272;43.922;2022-09-29T08:16:53;100003.50;;;13.83;74.50
74893;BME280;63446;56.272;43.922;2022-09-29T08:19:19;100004.38;;;13.92;74.36
74893;BME280;63446;56.272;43.922;2022-09-29T08:21:45;100005.44;;;14.05;74.01
74893;BME280;63446;56.272;43.922;2022-09-29T08:24:14;100010.41;;;14.20;73.74
74893;BME280;63446;56.272;43.922;2022-09-29T08:26:42;100003.16;;;14.34;73.39
74893;BME280;63446;56.272;43.922;2022-09-29T08:29:08;100006.66;;;14.44;73.15
74893;BME280;63446;56.272;43.922;2022-09-29T08:31:35;100013.47;;;14.50;73.16
74893;BME280;63446;56.272;43.922;2022-09-29T08:34:02;100015.84;;;14.60;72.81
74893;BME280;63446;56.272;43.922;2022-09-29T08:36:28;100021.84;;;14.65;72.76
74893;BME280;63446;56.272;43.922;2022-09-29T08:38:55;100030.78;;;14.70;72.40
74893;BME280;63446;56.272;43.922;2022-09-29T08:44:22;100022.69;;;14.75;72.37
74893;BME280;63446;56.272;43.922;2022-09-29T08:46:56;100017.72;;;14.82;72.32
74893;BME280;63446;56.272;43.922;2022-09-29T08:49:52;100017.75;;;14.90;72.24
74893;BME280;63446;56.272;43.922;2022-09-29T08:52:26;100021.72;;;15.02;71.97
74893;BME280;63446;56.272;43.922;2022-09-29T08:55:00;100024.91;;;15.12;71.67
74893;BME280;63446;56.272;43.922;2022-09-29T08:57:28;100024.31;;;15.24;71.51
74893;BME280;63446;56.272;43.922;2022-09-29T08:59:57;100027.19;;;15.36;71.26
74893;BME280;63446;56.272;43.922;2022-09-29T09:20:13;100062.03;;;14.86;72.14
74893;BME280;63446;56.272;43.922;2022-09-29T09:25:45;100068.50;;;14.72;72.48
74893;BME280;63446;56.272;43.922;2022-09-29T09:28:17;100064.88;;;14.68;72.58
74893;BME280;63446;56.272;43.922;2022-09-29T09:30:50;100064.41;;;14.65;72.62
74893;BME280;63446;56.272;43.922;2022-09-29T09:33:25;100073.16;;;14.66;72.75
74893;BME280;63446;56.272;43.922;2022-09-29T09:36:38;100083.50;;;14.68;72.66
74893;BME280;63446;56.272;43.922;2022-09-29T09:42:20;100085.19;;;14.63;72.89
74893;BME280;63446;56.272;43.922;2022-09-29T09:44:58;100095.34;;;14.61;72.90
74893;BME280;63446;56.272;43.922;2022-09-29T09:47:28;100102.19;;;14.54;72.66
74893;BME280;63446;56.272;43.922;2022-09-29T09:50:00;100099.22;;;14.41;73.17
74893;BME280;63446;56.272;43.922;2022-09-29T09:52:39;100095.22;;;14.30;73.25
74893;BME280;63446;56.272;43.922;2022-09-29T09:55:14;100100.75;;;14.20;73.37
74893;BME280;63446;56.272;43.922;2022-09-29T09:58:03;100098.91;;;14.07;73.60
74893;BME280;63446;56.272;43.922;2022-09-29T10:03:06;100108.38;;;13.85;74.07
74893;BME280;63446;56.272;43.922;2022-09-29T10:08:06;100125.41;;;13.71;74.66
74893;BME280;63446;56.272;43.922;2022-09-29T10:10:34;100127.06;;;13.66;75.00
74893;BME280;63446;56.272;43.922;2022-09-29T10:13:11;100132.19;;;13.63;75.59
74893;BME280;63446;56.272;43.922;2022-09-29T10:15:58;100131.78;;;13.56;75.49
74893;BME280;63446;56.272;43.922;2022-09-29T10:18:39;100135.63;;;13.50;75.90
74893;BME280;63446;56.272;43.922;2022-09-29T10:23:51;100151.72;;;13.39;76.46
74893;BME280;63446;56.272;43.922;2022-09-29T10:26:19;100153.38;;;13.35;76.42
74893;BME280;63446;56.272;43.922;2022-09-29T10:28:54;100155.03;;;13.31;76.75
74893;BME280;63446;56.272;43.922;2022-09-29T10:31:26;100154.84;;;13.28;77.00
74893;BME280;63446;56.272;43.922;2022-09-29T10:34:15;100159.94;;;13.24;77.26
74893;BME280;63446;56.272;43.922;2022-09-29T10:36:51;100181.66;;;13.26;77.18
74893;BME280;63446;56.272;43.922;2022-09-29T10:39:43;100177.72;;;13.24;77.47
74893;BME280;63446;56.272;43.922;2022-09-29T10:42:23;100177.41;;;13.25;77.51
74893;BME280;63446;56.272;43.922;2022-09-29T10:47:39;100193.56;;;13.29;77.48
74893;BME280;63446;56.272;43.922;2022-09-29T10:52:47;100204.09;;;13.34;77.62
74893;BME280;63446;56.272;43.922;2022-09-29T10:55:20;100202.44;;;13.38;77.64
74893;BME280;63446;56.272;43.922;2022-09-29T10:57:46;100206.31;;;13.46;77.58
74893;BME280;63446;56.272;43.922;2022-09-29T11:00:32;100204.53;;;13.55;77.59
74893;BME280;63446;56.272;43.922;2022-09-29T11:05:34;100206.63;;;13.72;77.09
74893;BME280;63446;56.272;43.922;2022-09-29T11:08:01;100197.69;;;13.81;76.80
74893;BME280;63446;56.272;43.922;2022-09-29T11:10:35;100196.91;;;13.95;76.71
74893;BME280;63446;56.272;43.922;2022-09-29T11:15:45;100210.31;;;14.03;76.32
74893;BME280;63446;56.272;43.922;2022-09-29T11:18:27;100230.19;;;14.06;76.52
74893;BME280;63446;56.272;43.922;2022-09-29T11:21:05;100226.75;;;14.05;76.72
74893;BME280;63446;56.272;43.922;2022-09-29T11:40:11;100249.09;;;14.46;76.04
74893;BME280;63446;56.272;43.922;2022-09-29T11:43:25;100256.16;;;14.64;75.96
74893;BME280;63446;56.272;43.922;2022-09-29T11:49:13;100250.00;;;14.91;75.24
74893;BME280;63446;56.272;43.922;2022-09-29T12:08:14;100273.41;;;14.25;75.78
74893;BME280;63446;56.272;43.922;2022-09-29T12:11:27;100274.47;;;14.10;76.32
74893;BME280;63446;56.272;43.922;2022-09-29T12:14:24;100278.41;;;13.99;76.45
74893;BME280;63446;56.272;43.922;2022-09-29T12:16:56;100295.59;;;13.88;77.10
74893;BME280;63446;56.272;43.922;2022-09-29T12:19:26;100290.94;;;13.80;77.31
74893;BME280;63446;56.272;43.922;2022-09-29T12:21:55;100286.81;;;13.74;77.55
74893;BME280;63446;56.272;43.922;2022-09-29T12:26:58;100292.69;;;13.71;77.65
74893;BME280;63446;56.272;43.922;2022-09-29T12:31:58;100296.34;;;13.75;77.05
74893;BME280;63446;56.272;43.922;2022-09-29T12:37:42;100295.41;;;13.98;76.90
74893;BME280;63446;56.272;43.922;2022-09-29T12:40:23;100296.81;;;14.09;76.54
74893;BME280;63446;56.272;43.922;2022-09-29T12:48:34;100296.34;;;14.21;76.33
74893;BME280;63446;56.272;43.922;2022-09-29T12:53:59;100311.66;;;14.10;76.50
74893;BME280;63446;56.272;43.922;2022-09-29T13:08:05;100315.72;;;13.75;77.20
74893;BME280;63446;56.272;43.922;2022-09-29T13:13:31;100320.44;;;13.64;77.14
74893;BME280;63446;56.272;43.922;2022-09-29T13:29:12;100347.34;;;13.39;77.83
74893;BME280;63446;56.272;43.922;2022-09-29T13:31:39;100347.13;;;13.35;77.99
74893;BME280;63446;56.272;43.922;2022-09-29T13:34:23;100349.56;;;13.32;78.08
74893;BME280;63446;56.272;43.922;2022-09-29T13:36:52;100353.31;;;13.31;78.24
74893;BME280;63446;56.272;43.922;2022-09-29T13:39:26;100351.22;;;13.28;78.36
74893;BME280;63446;56.272;43.922;2022-09-29T13:41:53;100356.81;;;13.26;78.37
74893;BME280;63446;56.272;43.922;2022-09-29T13:44:27;100366.91;;;13.24;78.62
74893;BME280;63446;56.272;43.922;2022-09-29T13:46:54;100362.41;;;13.25;78.97
74893;BME280;63446;56.272;43.922;2022-09-29T13:49:23;100371.44;;;13.24;78.88
74893;BME280;63446;56.272;43.922;2022-09-29T13:51:59;100373.31;;;13.23;79.09
74893;BME280;63446;56.272;43.922;2022-09-29T13:54:39;100380.72;;;13.21;78.94
74893;BME280;63446;56.272;43.922;2022-09-29T13:59:42;100383.66;;;13.19;78.77
74893;BME280;63446;56.272;43.922;2022-09-29T14:02:34;100383.72;;;13.14;78.63
74893;BME280;63446;56.272;43.922;2022-09-29T14:10:39;100390.75;;;13.05;78.90
74893;BME280;63446;56.272;43.922;2022-09-29T14:13:10;100396.34;;;13.04;79.14
74893;BME280;63446;56.272;43.922;2022-09-29T14:15:49;100399.56;;;13.01;79.19
74893;BME280;63446;56.272;43.922;2022-09-29T14:18:26;100403.56;;;12.98;79.40
74893;BME280;63446;56.272;43.922;2022-09-29T14:20:59;100404.94;;;12.95;79.32
74893;BME280;63446;56.272;43.922;2022-09-29T14:23:48;100408.41;;;12.91;79.53
74893;BME280;63446;56.272;43.922;2022-09-29T14:26:41;100411.66;;;12.88;79.46
74893;BME280;63446;56.272;43.922;2022-09-29T14:31:49;100416.75;;;12.79;79.67
74893;BME280;63446;56.272;43.922;2022-09-29T14:34:20;100421.59;;;12.72;79.67
74893;BME280;63446;56.272;43.922;2022-09-29T14:36:50;100440.50;;;12.65;79.85
74893;BME280;63446;56.272;43.922;2022-09-29T14:39:19;100434.44;;;12.60;80.09
74893;BME280;63446;56.272;43.922;2022-09-29T14:41:47;100440.59;;;12.55;80.04
74893;BME280;63446;56.272;43.922;2022-09-29T14:44:33;100450.47;;;12.50;80.39
74893;BME280;63446;56.272;43.922;2022-09-29T14:55:50;100456.22;;;12.28;80.39
74893;BME280;63446;56.272;43.922;2022-09-29T15:03:44;100467.41;;;12.19;80.82
74893;BME280;63446;56.272;43.922;2022-09-29T15:06:23;100475.41;;;12.09;80.83
74893;BME280;63446;56.272;43.922;2022-09-29T15:09:10;100482.63;;;11.98;80.71
74893;BME280;63446;56.272;43.922;2022-09-29T15:11:51;100479.25;;;11.83;80.93
74893;BME280;63446;56.272;43.922;2022-09-29T15:17:07;100482.84;;;11.53;81.14
74893;BME280;63446;56.272;43.922;2022-09-29T15:25:09;100506.28;;;11.15;81.67
74893;BME280;63446;56.272;43.922;2022-09-29T15:27:45;100509.72;;;11.05;81.91
74893;BME280;63446;56.272;43.922;2022-09-29T15:30:17;100510.78;;;10.94;82.05
74893;BME280;63446;56.272;43.922;2022-09-29T15:32:45;100513.97;;;10.86;82.05
74893;BME280;63446;56.272;43.922;2022-09-29T15:35:16;100521.66;;;10.77;82.23
74893;BME280;63446;56.272;43.922;2022-09-29T15:40:21;100535.69;;;10.62;82.43
74893;BME280;63446;56.272;43.922;2022-09-29T15:42:50;100529.31;;;10.53;82.51
74893;BME280;63446;56.272;43.922;2022-09-29T15:45:26;100538.31;;;10.47;82.48
74893;BME280;63446;56.272;43.922;2022-09-29T15:48:04;100549.66;;;10.42;82.54
74893;BME280;63446;56.272;43.922;2022-09-29T15:50:32;100550.97;;;10.35;82.65
74893;BME280;63446;56.272;43.922;2022-09-29T15:53:00;100548.31;;;10.30;82.74
74893;BME280;63446;56.272;43.922;2022-09-29T15:55:31;100551.75;;;10.25;82.70
74893;BME280;63446;56.272;43.922;2022-09-29T15:57:58;100549.84;;;10.20;82.93
74893;BME280;63446;56.272;43.922;2022-09-29T16:05:37;100559.88;;;10.18;83.20
74893;BME280;63446;56.272;43.922;2022-09-29T16:08:32;100567.03;;;10.23;83.43
74893;BME280;63446;56.272;43.922;2022-09-29T16:11:13;100562.34;;;10.30;83.38
74893;BME280;63446;56.272;43.922;2022-09-29T16:13:48;100573.19;;;10.39;83.56
74893;BME280;63446;56.272;43.922;2022-09-29T16:16:15;100584.00;;;10.47;83.68
74893;BME280;63446;56.272;43.922;2022-09-29T16:21:11;100584.81;;;10.63;83.67